createdAt,value
2023-04-09T00:00:16.758Z,67.45
2023-04-09T00:01:19.132Z,63.67
2023-04-09T00:02:21.482Z,61.83
2023-04-09T00:03:23.785Z,64.13
2023-04-09T00:04:26.094Z,65.78
2023-04-09T00:05:28.638Z,63.40
2023-04-09T00:06:31.363Z,62.13
2023-04-09T00:07:33.578Z,61.75
2023-04-09T00:08:35.956Z,62.55
2023-04-09T00:09:38.151Z,62.10
2023-04-09T00:10:40.446Z,61.50
2023-04-09T00:11:42.965Z,58.75
2023-04-09T00:12:46.773Z,61.08
2023-04-09T00:13:48.967Z,57.35
2023-04-09T00:14:51.762Z,55.22
2023-04-09T00:15:53.926Z,57.58
2023-04-09T00:16:56.318Z,56.78
2023-04-09T00:17:58.959Z,58.45
2023-04-09T00:19:01.196Z,56.58
2023-04-09T00:20:05.967Z,57.50
2023-04-09T00:21:08.708Z,56.38
2023-04-09T00:22:11.254Z,55.25
2023-04-09T00:23:14.487Z,57.05
2023-04-09T00:24:16.643Z,55.60
2023-04-09T00:25:19.931Z,58.35
2023-04-09T00:26:22.436Z,55.70
2023-04-09T00:27:24.819Z,54.75
2023-04-09T00:28:27.117Z,54.13
2023-04-09T00:29:29.299Z,55.33
2023-04-09T00:30:32.655Z,52.90
2023-04-09T00:31:35.005Z,55.13
2023-04-09T00:32:41.580Z,53.67
2023-04-09T00:33:44.094Z,48.92
2023-04-09T00:34:46.612Z,52.70
2023-04-09T00:35:48.843Z,52.60
2023-04-09T00:36:51.243Z,52.10
2023-04-09T00:37:53.589Z,53.47
2023-04-09T00:38:56.106Z,53.45
2023-04-09T00:39:58.500Z,51.60
2023-04-09T00:41:01.077Z,55.25
2023-04-09T00:42:03.618Z,55.00
2023-04-09T00:43:06.941Z,53.17
2023-04-09T00:44:09.144Z,53.88
2023-04-09T00:45:11.556Z,52.92
2023-04-09T00:46:14.375Z,51.50
2023-04-09T00:47:17.742Z,51.17
2023-04-09T00:48:20.860Z,51.80
2023-04-09T00:49:24.779Z,55.55
2023-04-09T00:50:27.177Z,56.90
2023-04-09T00:51:29.600Z,55.90
2023-04-09T00:52:33.325Z,57.60
2023-04-09T00:53:35.595Z,56.97
2023-04-09T00:54:37.879Z,54.75
2023-04-09T00:55:41.710Z,53.53
2023-04-09T00:56:44.137Z,53.88
2023-04-09T00:57:47.104Z,53.40
2023-04-09T00:58:49.906Z,55.08
2023-04-09T00:59:52.177Z,52.10
2023-04-09T01:00:55.509Z,51.10
2023-04-09T01:01:58.168Z,52.28
2023-04-09T01:03:01.068Z,52.22
2023-04-09T01:04:03.652Z,53.65
2023-04-09T01:05:06.514Z,50.15
2023-04-09T01:06:33.121Z,51.67
2023-04-09T01:07:51.376Z,49.70
2023-04-09T01:08:56.244Z,47.67
2023-04-09T01:10:53.801Z,53.97
2023-04-09T01:11:56.825Z,47.95
2023-04-09T01:12:59.373Z,47.75
2023-04-09T01:14:08.762Z,49.28
2023-04-09T01:15:18.361Z,51.47
2023-04-09T01:16:23.311Z,47.47
2023-04-09T01:17:46.795Z,49.70
2023-04-09T01:19:00.006Z,49.13
2023-04-09T01:20:07.488Z,48.58
2023-04-09T01:21:12.024Z,51.22
2023-04-09T01:22:40.438Z,49.03
2023-04-09T01:23:47.998Z,47.55
2023-04-09T01:25:45.478Z,48.33
2023-04-09T01:26:57.284Z,48.67
2023-04-09T01:28:21.058Z,47.17
2023-04-09T01:29:26.684Z,49.53
2023-04-09T01:30:29.960Z,48.45
2023-04-09T01:31:37.482Z,50.22
2023-04-09T01:32:41.593Z,50.53
2023-04-09T01:33:44.963Z,50.70
2023-04-09T01:34:48.659Z,50.35
2023-04-09T01:35:52.800Z,51.92
2023-04-09T01:36:59.480Z,52.00
2023-04-09T01:38:03.986Z,49.67
2023-04-09T01:39:06.820Z,49.70
2023-04-09T01:40:09.651Z,50.15
2023-04-09T01:41:18.144Z,49.30
2023-04-09T01:42:21.134Z,50.17
2023-04-09T01:43:24.564Z,49.22
2023-04-09T01:44:29.043Z,49.17
2023-04-09T01:45:31.238Z,47.85
2023-04-09T01:46:35.335Z,46.17
2023-04-09T01:47:38.721Z,45.95
2023-04-09T01:48:41.618Z,44.13
2023-04-09T01:49:44.828Z,46.70
2023-04-09T01:50:48.068Z,47.38
2023-04-09T01:51:50.885Z,45.63
2023-04-09T01:52:53.426Z,50.30
2023-04-09T01:53:56.206Z,50.88
2023-04-09T01:54:58.780Z,55.00
2023-04-09T01:56:01.637Z,54.40
2023-04-09T01:57:04.316Z,56.90
2023-04-09T01:58:06.740Z,58.22
2023-04-09T01:59:09.023Z,54.45
2023-04-09T02:00:12.306Z,54.40
2023-04-09T02:01:32.175Z,55.30
2023-04-09T02:02:41.770Z,54.38
2023-04-09T02:03:53.726Z,51.88
2023-04-09T02:04:58.867Z,50.25
2023-04-09T02:06:13.582Z,53.15
2023-04-09T02:07:26.364Z,52.40
2023-04-09T02:08:30.758Z,52.08
2023-04-09T02:09:37.103Z,50.15
2023-04-09T02:10:40.878Z,49.83
2023-04-09T02:11:43.795Z,50.25
2023-04-09T02:12:52.545Z,50.40
2023-04-09T02:13:56.662Z,51.85
2023-04-09T02:15:02.362Z,53.13
2023-04-09T02:16:06.051Z,53.97
2023-04-09T02:17:08.508Z,54.85
2023-04-09T02:18:28.537Z,52.85
2023-04-09T02:19:41.536Z,54.03
2023-04-09T02:20:43.887Z,54.38
2023-04-09T02:21:46.459Z,54.50
2023-04-09T02:22:49.059Z,54.60
2023-04-09T02:23:51.304Z,53.08
2023-04-09T02:24:54.024Z,52.95
2023-04-09T02:25:56.570Z,53.97
2023-04-09T02:26:58.762Z,52.03
2023-04-09T02:28:01.129Z,54.88
2023-04-09T02:29:03.564Z,53.65
2023-04-09T02:30:06.607Z,54.00
2023-04-09T02:31:09.099Z,53.05
2023-04-09T02:32:11.352Z,51.22
2023-04-09T02:33:13.829Z,53.47
2023-04-09T02:34:16.085Z,52.63
2023-04-09T02:35:18.509Z,49.67
2023-04-09T02:36:20.809Z,51.60
2023-04-09T02:37:23.235Z,57.40
2023-04-09T02:38:25.416Z,58.65
2023-04-09T02:39:27.824Z,58.25
2023-04-09T02:40:30.326Z,59.53
2023-04-09T02:41:32.578Z,61.10
2023-04-09T02:42:35.365Z,65.75
2023-04-09T02:43:37.688Z,64.28
2023-04-09T02:44:39.952Z,63.03
2023-04-09T02:45:42.592Z,64.68
2023-04-09T02:46:46.387Z,66.82
2023-04-09T02:47:49.141Z,62.47
2023-04-09T02:48:51.700Z,63.63
2023-04-09T02:49:54.328Z,65.70
2023-04-09T02:50:57.351Z,61.80
2023-04-09T02:51:59.589Z,67.30
2023-04-09T02:53:01.853Z,65.43
2023-04-09T02:54:04.658Z,66.13
2023-04-09T02:55:08.507Z,65.65
2023-04-09T02:56:10.785Z,65.72
2023-04-09T02:57:13.001Z,68.28
2023-04-09T02:58:15.706Z,66.95
2023-04-09T02:59:18.074Z,65.47
2023-04-09T03:00:20.882Z,63.95
2023-04-09T03:01:23.175Z,65.45
2023-04-09T03:02:25.553Z,63.17
2023-04-09T03:03:28.198Z,67.70
2023-04-09T03:04:30.617Z,63.35
2023-04-09T03:05:33.035Z,64.53
2023-04-09T03:06:40.824Z,64.72
2023-04-09T03:07:43.042Z,64.00
2023-04-09T03:08:45.622Z,62.10
2023-04-09T03:09:47.833Z,61.45
2023-04-09T03:10:50.414Z,63.22
2023-04-09T03:11:52.647Z,64.32
2023-04-09T03:12:55.282Z,63.22
2023-04-09T03:13:58.749Z,63.08
2023-04-09T03:15:01.005Z,58.40
2023-04-09T03:16:04.981Z,64.95
2023-04-09T03:17:07.239Z,61.67
2023-04-09T03:18:09.626Z,60.83
2023-04-09T03:19:11.761Z,63.30
2023-04-09T03:20:14.324Z,65.40
2023-04-09T03:21:16.622Z,61.22
2023-04-09T03:22:23.315Z,61.58
2023-04-09T03:23:28.125Z,60.50
2023-04-09T03:24:32.231Z,61.08
2023-04-09T03:25:39.194Z,61.33
2023-04-09T03:26:47.811Z,61.25
2023-04-09T03:27:51.094Z,63.03
2023-04-09T03:29:02.212Z,61.67
2023-04-09T03:30:04.866Z,61.05
2023-04-09T03:31:17.224Z,62.70
2023-04-09T03:32:20.773Z,62.47
2023-04-09T03:33:24.133Z,59.97
2023-04-09T03:34:29.799Z,62.65
2023-04-09T03:35:33.318Z,63.67
2023-04-09T03:36:36.289Z,63.20
2023-04-09T03:37:43.399Z,64.50
2023-04-09T03:38:51.863Z,62.60
2023-04-09T03:40:14.436Z,61.40
2023-04-09T03:41:17.065Z,63.78
2023-04-09T03:42:19.275Z,63.10
2023-04-09T03:43:24.073Z,68.53
2023-04-09T03:44:28.462Z,65.53
2023-04-09T03:45:38.813Z,65.57
2023-04-09T03:46:56.465Z,68.85
2023-04-09T03:47:59.807Z,67.55
2023-04-09T03:49:02.294Z,68.78
2023-04-09T03:51:23.020Z,66.35
2023-04-09T03:52:31.120Z,72.18
2023-04-09T03:53:38.049Z,71.18
2023-04-09T03:54:43.512Z,69.93
2023-04-09T03:55:51.432Z,65.75
2023-04-09T03:56:59.346Z,70.28
2023-04-09T03:58:01.549Z,69.55
2023-04-09T03:59:07.250Z,71.35
2023-04-09T04:00:22.478Z,71.28
2023-04-09T04:01:48.480Z,70.90
2023-04-09T04:02:52.174Z,65.00
2023-04-09T04:04:11.960Z,65.43
2023-04-09T04:05:18.900Z,70.03
2023-04-09T04:06:24.504Z,66.38
2023-04-09T04:07:38.135Z,68.43
2023-04-09T04:08:47.770Z,68.88
2023-04-09T04:09:51.661Z,66.60
2023-04-09T04:10:54.909Z,69.13
2023-04-09T04:11:58.887Z,69.03
2023-04-09T04:13:15.661Z,65.75
2023-04-09T04:14:23.805Z,68.75
2023-04-09T04:15:32.665Z,69.95
2023-04-09T04:16:35.153Z,63.70
2023-04-09T04:17:39.502Z,64.25
2023-04-09T04:18:53.171Z,65.97
2023-04-09T04:19:56.293Z,65.68
2023-04-09T04:20:59.433Z,66.07
2023-04-09T04:23:08.236Z,62.38
2023-04-09T04:24:14.362Z,63.88
2023-04-09T04:25:17.280Z,64.90
2023-04-09T04:26:20.850Z,65.72
2023-04-09T04:27:23.465Z,66.18
2023-04-09T04:28:26.317Z,61.83
2023-04-09T04:29:28.552Z,65.05
2023-04-09T04:30:34.115Z,63.47
2023-04-09T04:31:40.562Z,65.97
2023-04-09T04:32:43.064Z,66.95
2023-04-09T04:33:47.148Z,65.63
2023-04-09T04:34:50.813Z,63.63
2023-04-09T04:36:10.367Z,66.13
2023-04-09T04:37:17.265Z,65.47
2023-04-09T04:38:19.719Z,65.85
2023-04-09T04:39:21.925Z,63.97
2023-04-09T04:40:35.255Z,64.63
2023-04-09T04:41:37.832Z,65.32
2023-04-09T04:42:50.202Z,64.95
2023-04-09T04:43:52.485Z,64.20
2023-04-09T04:44:57.982Z,66.07
2023-04-09T04:46:13.040Z,64.50
2023-04-09T04:47:15.663Z,64.28
2023-04-09T04:48:17.921Z,65.35
2023-04-09T04:49:20.333Z,67.00
2023-04-09T04:50:23.539Z,64.78
2023-04-09T04:51:36.341Z,67.20
2023-04-09T04:52:44.298Z,64.65
2023-04-09T04:53:46.913Z,66.22
2023-04-09T04:54:50.365Z,63.15
2023-04-09T04:55:57.084Z,66.50
2023-04-09T04:57:02.057Z,65.47
2023-04-09T04:58:11.359Z,64.95
2023-04-09T04:59:19.867Z,63.05
2023-04-09T05:00:32.637Z,64.45
2023-04-09T05:01:37.971Z,61.35
2023-04-09T05:02:44.668Z,62.17
2023-04-09T05:03:59.411Z,64.85
2023-04-09T05:05:08.179Z,60.65
2023-04-09T05:06:15.938Z,59.50
2023-04-09T05:07:20.766Z,60.55
2023-04-09T05:08:27.167Z,58.75
2023-04-09T05:09:31.399Z,60.92
2023-04-09T05:10:43.100Z,57.70
2023-04-09T05:11:46.317Z,58.17
2023-04-09T05:12:54.276Z,55.83
2023-04-09T05:14:04.806Z,56.10
2023-04-09T05:15:08.077Z,57.63
2023-04-09T05:16:19.158Z,55.17
2023-04-09T05:17:27.047Z,54.63
2023-04-09T05:18:29.633Z,55.72
2023-04-09T05:19:31.905Z,56.40
2023-04-09T05:20:37.727Z,53.55
2023-04-09T05:21:44.118Z,56.13
2023-04-09T05:22:47.747Z,53.13
2023-04-09T05:23:50.766Z,55.88
2023-04-09T05:24:53.815Z,58.58
2023-04-09T05:25:56.465Z,57.22
2023-04-09T05:27:12.454Z,56.65
2023-04-09T05:28:19.464Z,55.60
2023-04-09T05:29:25.349Z,55.35
2023-04-09T05:30:27.700Z,56.67
2023-04-09T05:31:32.944Z,54.53
2023-04-09T05:32:40.413Z,56.00
2023-04-09T05:33:43.324Z,55.15
2023-04-09T05:34:52.635Z,58.10
2023-04-09T05:35:55.180Z,56.00
2023-04-09T05:36:57.452Z,56.25
2023-04-09T05:38:01.172Z,55.22
2023-04-09T05:39:03.519Z,54.25
2023-04-09T05:40:06.918Z,53.42
2023-04-09T05:41:09.211Z,53.45
2023-04-09T05:42:18.582Z,55.60
2023-04-09T05:43:47.260Z,56.05
2023-04-09T05:44:50.479Z,54.15
2023-04-09T05:45:55.967Z,56.03
2023-04-09T05:46:58.322Z,53.13
2023-04-09T05:48:06.985Z,56.22
2023-04-09T05:49:09.199Z,55.95
2023-04-09T05:50:12.819Z,56.47
2023-04-09T05:51:16.534Z,55.13
2023-04-09T05:52:19.794Z,57.47
2023-04-09T05:53:22.659Z,55.42
2023-04-09T05:54:26.049Z,55.72
2023-04-09T05:55:28.309Z,53.03
2023-04-09T05:56:34.934Z,55.40
2023-04-09T05:57:37.138Z,52.53
2023-04-09T05:58:40.173Z,55.30
2023-04-09T05:59:42.431Z,56.20
2023-04-09T06:00:44.916Z,55.47
2023-04-09T06:01:47.301Z,53.08
2023-04-09T06:02:50.037Z,53.42
2023-04-09T06:03:56.141Z,52.40
2023-04-09T06:05:00.247Z,53.13
2023-04-09T06:06:02.625Z,54.63
2023-04-09T06:07:04.822Z,52.58
2023-04-09T06:08:07.398Z,51.65
2023-04-09T06:09:09.806Z,50.35
2023-04-09T06:10:16.892Z,51.38
2023-04-09T06:11:19.534Z,52.42
2023-04-09T06:12:22.024Z,52.25
2023-04-09T06:13:24.642Z,52.33
2023-04-09T06:14:27.044Z,53.10
2023-04-09T06:15:29.281Z,52.35
2023-04-09T06:16:33.509Z,51.05
2023-04-09T06:17:35.868Z,53.15
2023-04-09T06:18:38.411Z,50.65
2023-04-09T06:19:40.634Z,51.65
2023-04-09T06:20:43.031Z,48.55
2023-04-09T06:21:45.325Z,49.17
2023-04-09T06:22:48.092Z,50.03
2023-04-09T06:23:50.795Z,47.17
2023-04-09T06:24:53.253Z,47.42
2023-04-09T06:25:55.873Z,48.55
2023-04-09T06:26:58.075Z,47.65
2023-04-09T06:28:00.291Z,48.83
2023-04-09T06:29:03.540Z,44.75
2023-04-09T06:30:06.478Z,46.08
2023-04-09T06:31:09.025Z,46.03
2023-04-09T06:32:11.441Z,44.13
2023-04-09T06:33:13.701Z,46.15
2023-04-09T06:34:16.177Z,44.50
2023-04-09T06:35:18.407Z,45.30
2023-04-09T06:36:21.306Z,44.97
2023-04-09T06:37:23.653Z,46.13
2023-04-09T06:38:25.950Z,45.50
2023-04-09T06:39:28.365Z,42.08
2023-04-09T06:40:30.822Z,44.15
2023-04-09T06:41:33.684Z,43.92
2023-04-09T06:42:39.976Z,44.10
2023-04-09T06:43:52.473Z,44.30
2023-04-09T06:44:54.933Z,44.50
2023-04-09T06:45:57.283Z,45.00
2023-04-09T06:46:59.522Z,45.08
2023-04-09T06:48:01.916Z,44.80
2023-04-09T06:49:04.485Z,42.17
2023-04-09T06:50:07.311Z,43.08
2023-04-09T06:51:09.669Z,44.25
2023-04-09T06:52:12.103Z,43.03
2023-04-09T06:53:15.473Z,42.97
2023-04-09T06:54:17.839Z,41.80
2023-04-09T06:55:20.340Z,43.55
2023-04-09T06:56:22.507Z,42.92
2023-04-09T06:57:24.699Z,42.25
2023-04-09T06:58:26.883Z,42.92
2023-04-09T06:59:29.252Z,42.05
2023-04-09T07:00:31.471Z,42.95
2023-04-09T07:01:35.583Z,39.83
2023-04-09T07:02:38.612Z,39.15
2023-04-09T07:03:41.233Z,40.50
2023-04-09T07:04:43.968Z,39.90
2023-04-09T07:05:46.413Z,40.53
2023-04-09T07:06:48.624Z,41.42
2023-04-09T07:07:51.191Z,40.30
2023-04-09T07:08:53.677Z,38.17
2023-04-09T07:09:56.370Z,39.00
2023-04-09T07:10:58.645Z,38.53
2023-04-09T07:12:01.088Z,40.67
2023-04-09T07:13:03.427Z,38.08
2023-04-09T07:14:05.951Z,37.95
2023-04-09T07:15:08.534Z,37.55
2023-04-09T07:16:11.085Z,37.38
2023-04-09T07:17:13.306Z,38.65
2023-04-09T07:18:15.780Z,38.65
2023-04-09T07:19:18.355Z,39.25
2023-04-09T07:20:20.778Z,38.83
2023-04-09T07:21:22.930Z,37.20
2023-04-09T07:22:27.259Z,37.40
2023-04-09T07:23:29.421Z,37.97
2023-04-09T07:24:32.583Z,37.78
2023-04-09T07:25:34.783Z,38.22
2023-04-09T07:26:37.296Z,37.95
2023-04-09T07:27:39.543Z,36.08
2023-04-09T07:28:42.276Z,35.05
2023-04-09T07:29:45.150Z,33.95
2023-04-09T07:30:47.376Z,33.55
2023-04-09T07:31:49.799Z,33.83
2023-04-09T07:32:52.207Z,32.80
2023-04-09T07:33:54.791Z,31.98
2023-04-09T07:34:57.718Z,31.42
2023-04-09T07:35:59.900Z,30.52
2023-04-09T07:37:02.165Z,32.67
2023-04-09T07:38:04.469Z,31.48
2023-04-09T07:39:06.882Z,29.05
2023-04-09T07:40:09.477Z,30.73
2023-04-09T07:41:11.850Z,30.65
2023-04-09T07:42:14.514Z,30.88
2023-04-09T07:43:16.885Z,31.05
2023-04-09T07:44:19.357Z,30.15
2023-04-09T07:45:21.699Z,29.77
2023-04-09T07:46:23.924Z,29.92
2023-04-09T07:47:26.982Z,29.45
2023-04-09T07:48:29.474Z,29.48
2023-04-09T07:49:31.852Z,28.95
2023-04-09T07:50:34.087Z,29.33
2023-04-09T07:51:36.411Z,27.23
2023-04-09T07:52:38.858Z,26.27
2023-04-09T07:53:41.377Z,25.80
2023-04-09T07:54:43.787Z,26.48
2023-04-09T07:55:46.621Z,27.25
2023-04-09T07:56:49.140Z,26.45
2023-04-09T07:57:51.724Z,28.58
2023-04-09T07:58:54.346Z,27.63
2023-04-09T07:59:56.862Z,26.67
2023-04-09T08:00:59.050Z,27.35
2023-04-09T08:02:01.541Z,27.83
2023-04-09T08:03:04.237Z,27.70
2023-04-09T08:04:06.987Z,27.70
2023-04-09T08:05:09.943Z,28.70
2023-04-09T08:06:12.158Z,27.45
2023-04-09T08:07:14.515Z,27.50
2023-04-09T08:08:16.755Z,27.52
2023-04-09T08:09:20.768Z,26.95
2023-04-09T08:10:23.388Z,28.20
2023-04-09T08:11:26.085Z,27.88
2023-04-09T08:12:28.569Z,29.15
2023-04-09T08:13:30.766Z,26.63
2023-04-09T08:14:33.219Z,25.15
2023-04-09T08:15:35.403Z,24.05
2023-04-09T08:16:37.766Z,25.80
2023-04-09T08:17:40.486Z,26.13
2023-04-09T08:18:42.707Z,26.00
2023-04-09T08:19:45.106Z,26.70
2023-04-09T08:20:47.354Z,26.75
2023-04-09T08:21:49.664Z,27.10
2023-04-09T08:22:52.107Z,26.83
2023-04-09T08:23:56.140Z,26.98
2023-04-09T08:25:01.486Z,28.80
2023-04-09T08:26:04.866Z,29.58
2023-04-09T08:27:07.315Z,29.10
2023-04-09T08:28:09.797Z,28.05
2023-04-09T08:29:13.543Z,28.45
2023-04-09T08:30:18.258Z,27.77
2023-04-09T08:31:21.038Z,26.35
2023-04-09T08:32:23.252Z,27.60
2023-04-09T08:33:26.464Z,27.02
2023-04-09T08:34:28.903Z,28.48
2023-04-09T08:35:31.711Z,28.00
2023-04-09T08:36:35.448Z,27.83
2023-04-09T08:37:37.717Z,25.88
2023-04-09T08:38:40.642Z,26.08
2023-04-09T08:39:43.080Z,27.08
2023-04-09T08:40:45.456Z,26.52
2023-04-09T08:41:48.351Z,26.10
2023-04-09T08:42:59.293Z,27.13
2023-04-09T08:44:02.098Z,28.08
2023-04-09T08:45:05.635Z,28.83
2023-04-09T08:46:10.664Z,27.48
2023-04-09T08:47:13.499Z,26.80
2023-04-09T08:48:17.065Z,28.75
2023-04-09T08:49:19.510Z,29.25
2023-04-09T08:50:22.431Z,28.63
2023-04-09T08:51:24.986Z,29.08
2023-04-09T08:52:32.962Z,26.33
2023-04-09T08:53:36.757Z,29.00
2023-04-09T08:54:39.028Z,28.40
2023-04-09T08:55:45.538Z,27.73
2023-04-09T08:56:47.986Z,26.98
2023-04-09T08:57:50.241Z,27.58
2023-04-09T08:58:53.395Z,27.00
2023-04-09T08:59:56.169Z,26.90
2023-04-09T09:00:58.493Z,25.98
2023-04-09T09:02:08.066Z,24.88
2023-04-09T09:03:13.235Z,23.92
2023-04-09T09:04:15.546Z,24.10
2023-04-09T09:05:35.259Z,23.70
2023-04-09T09:06:39.717Z,22.85
2023-04-09T09:07:54.664Z,22.85
2023-04-09T09:09:09.990Z,22.95
2023-04-09T09:10:12.404Z,23.67
2023-04-09T09:11:27.056Z,23.92
2023-04-09T09:12:35.559Z,24.92
2023-04-09T09:13:37.777Z,24.85
2023-04-09T09:14:40.195Z,26.73
2023-04-09T09:15:42.699Z,30.83
2023-04-09T09:17:04.190Z,24.48
2023-04-09T09:18:07.214Z,23.05
2023-04-09T09:19:27.791Z,22.58
2023-04-09T09:20:30.250Z,21.23
2023-04-09T09:21:33.364Z,21.33
2023-04-09T09:22:55.205Z,21.20
2023-04-09T09:23:58.242Z,20.83
2023-04-09T09:25:01.027Z,21.17
2023-04-09T09:26:13.704Z,22.48
2023-04-09T09:27:43.142Z,22.80
2023-04-09T09:28:47.035Z,22.35
2023-04-09T09:29:49.231Z,22.00
2023-04-09T09:30:51.858Z,21.88
2023-04-09T09:31:56.267Z,22.85
2023-04-09T09:33:10.141Z,23.40
2023-04-09T09:34:12.349Z,21.75
2023-04-09T09:35:14.597Z,22.33
2023-04-09T09:36:33.924Z,22.63
2023-04-09T09:37:36.097Z,21.52
2023-04-09T09:38:57.890Z,21.88
2023-04-09T09:40:01.017Z,21.83
2023-04-09T09:41:18.279Z,23.48
2023-04-09T09:42:20.760Z,21.63
2023-04-09T09:43:23.108Z,26.80
2023-04-09T09:44:33.300Z,24.40
2023-04-09T09:45:36.892Z,22.75
2023-04-09T09:46:42.584Z,23.00
2023-04-09T09:47:45.813Z,22.08
2023-04-09T09:48:49.713Z,21.42
2023-04-09T09:49:52.320Z,23.38
2023-04-09T09:50:54.983Z,24.80
2023-04-09T09:51:59.972Z,24.80
2023-04-09T09:53:05.396Z,25.60
2023-04-09T09:54:12.890Z,23.25
2023-04-09T09:55:17.972Z,23.92
2023-04-09T09:56:24.792Z,24.05
2023-04-09T09:57:30.549Z,23.92
2023-04-09T09:58:38.865Z,23.25
2023-04-09T09:59:47.670Z,23.15
2023-04-09T10:00:51.736Z,21.95
2023-04-09T10:02:01.504Z,22.75
2023-04-09T10:03:16.104Z,22.08
2023-04-09T10:04:20.097Z,21.58
2023-04-09T10:05:26.790Z,21.10
2023-04-09T10:06:31.082Z,21.65
2023-04-09T10:07:33.811Z,21.65
2023-04-09T10:08:38.437Z,21.77
2023-04-09T10:09:51.525Z,22.83
2023-04-09T10:10:53.998Z,21.95
2023-04-09T10:11:59.295Z,23.33
2023-04-09T10:13:01.878Z,22.83
2023-04-09T10:14:07.577Z,21.58
2023-04-09T10:15:10.282Z,23.48
2023-04-09T10:16:13.259Z,25.92
2023-04-09T10:17:16.198Z,24.60
2023-04-09T10:18:18.687Z,20.70
2023-04-09T10:19:22.223Z,21.15
2023-04-09T10:20:32.539Z,22.08
2023-04-09T10:22:08.622Z,20.73
2023-04-09T10:23:19.488Z,20.80
2023-04-09T10:25:24.018Z,18.80
2023-04-09T10:26:31.054Z,21.02
2023-04-09T10:27:33.235Z,20.73
2023-04-09T10:28:37.523Z,22.02
2023-04-09T10:29:45.391Z,20.00
2023-04-09T10:30:48.107Z,20.55
2023-04-09T10:32:07.118Z,19.77
2023-04-09T10:33:26.512Z,19.48
2023-04-09T10:34:29.453Z,18.50
2023-04-09T10:35:31.633Z,18.08
2023-04-09T10:36:34.024Z,20.00
2023-04-09T10:37:36.495Z,19.83
2023-04-09T10:38:45.166Z,20.70
2023-04-09T10:39:48.854Z,20.08
2023-04-09T10:40:51.438Z,18.88
2023-04-09T10:41:55.138Z,19.80
2023-04-09T10:42:59.430Z,19.17
2023-04-09T10:44:06.676Z,19.30
2023-04-09T10:45:14.699Z,18.35
2023-04-09T10:46:26.888Z,19.13
2023-04-09T10:47:34.662Z,18.75
2023-04-09T10:48:36.929Z,18.30
2023-04-09T10:49:40.709Z,20.50
2023-04-09T10:50:44.709Z,17.92
2023-04-09T10:52:07.996Z,18.67
2023-04-09T10:53:25.792Z,18.92
2023-04-09T10:54:36.138Z,18.92
2023-04-09T10:55:41.892Z,19.50
2023-04-09T10:57:17.952Z,18.75
2023-04-09T10:58:20.564Z,18.25
2023-04-09T10:59:23.000Z,19.27
2023-04-09T11:00:25.461Z,21.15
2023-04-09T11:01:28.460Z,18.25
2023-04-09T11:02:39.827Z,18.42
2023-04-09T11:03:46.738Z,18.77
2023-04-09T11:05:07.361Z,18.55
2023-04-09T11:06:10.875Z,17.08
2023-04-09T11:07:17.751Z,18.90
2023-04-09T11:08:21.986Z,19.23
2023-04-09T11:09:24.199Z,18.83
2023-04-09T11:10:26.811Z,18.35
2023-04-09T11:11:29.515Z,20.05
2023-04-09T11:12:31.685Z,20.80
2023-04-09T11:13:34.497Z,20.48
2023-04-09T11:14:36.930Z,19.08
2023-04-09T11:15:39.485Z,18.73
2023-04-09T11:16:41.737Z,18.95
2023-04-09T11:17:44.811Z,19.30
2023-04-09T11:18:47.074Z,18.38
2023-04-09T11:19:50.031Z,18.85
2023-04-09T11:20:59.466Z,17.98
2023-04-09T11:22:06.534Z,18.55
2023-04-09T11:23:10.398Z,18.35
2023-04-09T11:24:13.017Z,17.95
2023-04-09T11:25:34.973Z,16.42
2023-04-09T11:26:37.660Z,16.95
2023-04-09T11:27:46.790Z,18.10
2023-04-09T11:28:49.202Z,18.48
2023-04-09T11:29:55.963Z,18.55
2023-04-09T11:30:58.222Z,17.63
2023-04-09T11:32:00.816Z,19.58
2023-04-09T11:33:03.227Z,18.60
2023-04-09T11:34:05.573Z,17.88
2023-04-09T11:35:15.629Z,18.52
2023-04-09T11:36:17.883Z,17.38
2023-04-09T11:37:20.536Z,17.33
2023-04-09T11:38:23.360Z,18.70
2023-04-09T11:39:26.363Z,18.02
2023-04-09T11:40:29.270Z,18.50
2023-04-09T11:41:36.194Z,18.45
2023-04-09T11:42:38.362Z,18.30
2023-04-09T11:43:40.683Z,18.55
2023-04-09T11:44:45.369Z,17.52
2023-04-09T11:45:48.565Z,17.45
2023-04-09T11:46:52.317Z,16.88
2023-04-09T11:47:55.436Z,17.35
2023-04-09T11:48:57.954Z,18.92
2023-04-09T11:50:00.200Z,19.05
2023-04-09T11:51:03.930Z,18.58
2023-04-09T11:52:06.517Z,18.67
2023-04-09T11:53:22.172Z,17.50
2023-04-09T11:54:24.362Z,18.17
2023-04-09T11:55:28.068Z,17.95
2023-04-09T11:56:31.253Z,17.83
2023-04-09T11:57:39.583Z,19.13
2023-04-09T11:58:46.996Z,16.77
2023-04-09T11:59:49.368Z,19.50
2023-04-09T12:01:00.569Z,19.65
2023-04-09T12:02:07.075Z,17.05
2023-04-09T12:03:10.884Z,16.95
2023-04-09T12:04:21.456Z,16.75
2023-04-09T12:05:26.285Z,17.15
2023-04-09T12:06:28.600Z,17.58
2023-04-09T12:07:34.386Z,19.38
2023-04-09T12:08:37.561Z,18.75
2023-04-09T12:09:49.201Z,17.73
2023-04-09T12:10:54.672Z,17.95
2023-04-09T12:11:59.403Z,18.10
2023-04-09T12:13:04.313Z,18.52
2023-04-09T12:14:06.641Z,18.77
2023-04-09T12:15:23.752Z,18.15
2023-04-09T12:16:26.014Z,18.48
2023-04-09T12:17:28.580Z,18.13
2023-04-09T12:18:31.196Z,17.63
2023-04-09T12:19:36.574Z,17.40
2023-04-09T12:20:41.418Z,18.88
2023-04-09T12:21:52.025Z,17.73
2023-04-09T12:23:56.740Z,16.42
2023-04-09T12:24:58.903Z,17.17
2023-04-09T12:26:01.337Z,18.40
2023-04-09T12:27:03.575Z,15.90
2023-04-09T12:28:07.513Z,16.45
2023-04-09T12:29:09.682Z,16.27
2023-04-09T12:30:11.879Z,15.88
2023-04-09T12:31:14.257Z,15.85
2023-04-09T12:32:16.460Z,16.15
2023-04-09T12:33:19.219Z,16.38
2023-04-09T12:34:21.412Z,16.88
2023-04-09T12:35:23.992Z,16.85
2023-04-09T12:36:26.520Z,16.25
2023-04-09T12:37:28.911Z,16.23
2023-04-09T12:38:31.173Z,15.63
2023-04-09T12:39:34.405Z,15.75
2023-04-09T12:40:37.090Z,15.07
2023-04-09T12:41:39.336Z,16.00
2023-04-09T12:42:42.762Z,16.42
2023-04-09T12:43:44.938Z,15.38
2023-04-09T12:44:47.308Z,15.27
2023-04-09T12:45:49.808Z,14.43
2023-04-09T12:46:52.065Z,15.02
2023-04-09T12:47:54.596Z,14.98
2023-04-09T12:48:56.822Z,17.67
2023-04-09T12:49:59.146Z,14.80
2023-04-09T12:51:02.031Z,15.45
2023-04-09T12:52:04.431Z,16.02
2023-04-09T12:53:06.984Z,16.92
2023-04-09T12:54:09.256Z,16.00
2023-04-09T12:55:12.676Z,15.63
2023-04-09T12:56:15.104Z,16.63
2023-04-09T12:57:17.667Z,15.40
2023-04-09T12:58:20.097Z,15.50
2023-04-09T12:59:22.289Z,16.60
2023-04-09T13:00:24.733Z,14.43
2023-04-09T13:01:27.393Z,14.63
2023-04-09T13:02:30.444Z,13.43
2023-04-09T13:03:34.527Z,14.55
2023-04-09T13:04:37.209Z,14.43
2023-04-09T13:05:39.699Z,13.23
2023-04-09T13:06:42.174Z,14.63
2023-04-09T13:07:44.474Z,13.70
2023-04-09T13:08:46.901Z,13.30
2023-04-09T13:09:52.610Z,13.68
2023-04-09T13:10:54.875Z,13.57
2023-04-09T13:11:57.297Z,13.85
2023-04-09T13:12:59.895Z,13.00
2023-04-09T13:14:02.118Z,14.43
2023-04-09T13:15:04.738Z,14.95
2023-04-09T13:16:07.533Z,13.68
2023-04-09T13:17:09.995Z,13.80
2023-04-09T13:18:15.099Z,14.73
2023-04-09T13:19:17.308Z,13.57
2023-04-09T13:20:19.775Z,14.88
2023-04-09T13:21:22.178Z,15.23
2023-04-09T13:22:24.503Z,14.60
2023-04-09T13:23:26.897Z,14.40
2023-04-09T13:24:29.320Z,14.23
2023-04-09T13:25:31.614Z,13.38
2023-04-09T13:26:34.179Z,14.23
2023-04-09T13:27:36.386Z,14.25
2023-04-09T13:28:38.593Z,14.55
2023-04-09T13:29:41.187Z,14.10
2023-04-09T13:30:43.431Z,13.73
2023-04-09T13:31:45.853Z,13.55
2023-04-09T13:32:48.134Z,13.45
2023-04-09T13:33:50.378Z,14.00
2023-04-09T13:34:54.619Z,14.60
2023-04-09T13:35:57.602Z,15.07
2023-04-09T13:36:59.887Z,14.45
2023-04-09T13:38:02.173Z,13.85
2023-04-09T13:39:04.588Z,14.23
2023-04-09T13:40:09.222Z,15.45
2023-04-09T13:41:11.629Z,15.73
2023-04-09T13:42:14.522Z,14.75
2023-04-09T13:43:17.073Z,17.15
2023-04-09T13:44:19.518Z,17.40
2023-04-09T13:45:23.900Z,16.88
2023-04-09T13:46:26.332Z,17.30
2023-04-09T13:47:28.604Z,16.17
2023-04-09T13:48:30.936Z,14.90
2023-04-09T13:49:33.308Z,13.02
2023-04-09T13:50:35.874Z,13.35
2023-04-09T13:51:38.226Z,12.95
2023-04-09T13:52:40.538Z,12.25
2023-04-09T13:53:43.333Z,13.25
2023-04-09T13:54:46.264Z,12.50
2023-04-09T13:55:48.919Z,12.50
2023-04-09T13:56:51.584Z,12.25
2023-04-09T13:57:53.819Z,12.15
2023-04-09T13:58:56.308Z,12.02